createdAt,value
2018-12-22T00:00:36.482Z,99696.18
2018-12-22T00:05:41.528Z,99701.61
2018-12-22T00:10:46.467Z,99699.13
2018-12-22T00:15:51.244Z,99702.19
2018-12-22T00:20:56.613Z,99707.80
2018-12-22T00:31:30.383Z,99716.30
2018-12-22T00:36:35.214Z,99712.91
2018-12-22T00:41:39.989Z,99714.30
2018-12-22T00:46:44.854Z,99716.30
2018-12-22T00:51:49.886Z,99724.77
2018-12-22T00:56:54.862Z,99734.83
2018-12-22T01:02:20.972Z,99734.02
2018-12-22T01:13:03.747Z,99734.95
2018-12-22T01:18:08.644Z,99748.41
2018-12-22T01:23:13.437Z,99742.28
2018-12-22T01:28:18.270Z,99741.28
2018-12-22T01:33:23.246Z,99755.91
2018-12-22T01:38:28.076Z,99755.18
2018-12-22T01:43:32.946Z,99757.63
2018-12-22T01:54:16.116Z,99771.25
2018-12-22T01:59:20.907Z,99776.82
2018-12-22T02:04:25.628Z,99782.16
2018-12-22T02:09:30.377Z,99778.61
2018-12-22T02:14:35.327Z,99784.23
2018-12-22T02:19:40.153Z,99795.42
2018-12-22T02:24:45.029Z,99797.19
2018-12-22T02:29:49.986Z,99793.03
2018-12-22T02:34:54.855Z,99800.05
2018-12-22T02:39:59.815Z,99801.75
2018-12-22T02:45:05.192Z,99800.92
2018-12-22T02:50:11.496Z,99818.83
2018-12-22T03:00:50.867Z,99830.90
2018-12-22T03:05:55.782Z,99835.53
2018-12-22T03:11:00.652Z,99843.70
2018-12-22T03:16:05.597Z,99841.63
2018-12-22T03:21:10.541Z,99839.47
2018-12-22T03:26:15.472Z,99844.59
2018-12-22T03:31:20.238Z,99855.61
2018-12-22T03:41:53.807Z,99858.39
2018-12-22T03:46:58.719Z,99858.73
2018-12-22T03:52:03.757Z,99851.63
2018-12-22T03:57:08.511Z,99856.03
2018-12-22T04:02:13.447Z,99863.16
2018-12-22T04:07:18.312Z,99866.17
2018-12-22T04:12:23.157Z,99866.38
2018-12-22T04:17:28.128Z,99862.77
2018-12-22T04:22:33.056Z,99875.03
2018-12-22T04:27:37.927Z,99879.50
2018-12-22T04:32:42.752Z,99891.86
2018-12-22T04:37:47.577Z,99899.88
2018-12-22T04:42:52.372Z,99909.69
2018-12-22T04:47:57.247Z,99915.28
2018-12-22T04:53:02.031Z,99925.36
2018-12-22T04:58:06.850Z,99925.21
2018-12-22T05:03:11.764Z,99925.56
2018-12-22T05:08:16.666Z,99922.89
2018-12-22T05:13:21.632Z,99924.04
2018-12-22T05:18:26.600Z,99933.63
2018-12-22T05:23:31.340Z,99942.86
2018-12-22T05:28:36.406Z,99944.59
2018-12-22T05:33:41.305Z,99957.66
2018-12-22T05:38:46.182Z,99966.84
2018-12-22T05:43:51.036Z,99974.70
2018-12-22T05:48:56.107Z,99985.97
2018-12-22T05:54:00.980Z,99991.71
2018-12-22T06:04:33.579Z,100008.52
2018-12-22T06:09:38.472Z,100024.44
2018-12-22T06:14:43.534Z,100030.51
2018-12-22T06:19:48.275Z,100034.27
2018-12-22T06:24:53.175Z,100032.22
2018-12-22T06:29:58.085Z,100039.87
2018-12-22T06:35:03.009Z,100058.25
2018-12-22T06:40:08.426Z,100060.56
2018-12-22T06:45:13.235Z,100058.20
2018-12-22T06:50:18.124Z,100066.20
2018-12-22T06:55:23.096Z,100059.41
2018-12-22T07:00:28.314Z,100065.09
2018-12-22T07:05:33.185Z,100081.05
2018-12-22T07:10:37.835Z,100095.91
2018-12-22T07:15:42.794Z,100096.12
2018-12-22T07:20:47.684Z,100109.47
2018-12-22T07:25:52.610Z,100114.58
2018-12-22T07:30:57.385Z,100128.23
2018-12-22T07:36:02.260Z,100137.39
2018-12-22T07:41:07.219Z,100147.23
2018-12-22T07:46:12.039Z,100152.30
2018-12-22T07:51:16.904Z,100153.84
2018-12-22T07:56:21.669Z,100158.99
2018-12-22T08:01:26.786Z,100155.09
2018-12-22T08:06:31.884Z,100161.25
2018-12-22T08:11:36.750Z,100162.81
2018-12-22T08:16:41.655Z,100174.56
2018-12-22T08:21:46.665Z,100181.52
2018-12-22T08:26:51.485Z,100197.06
2018-12-22T08:31:56.224Z,100206.13
2018-12-22T08:37:01.005Z,100222.81
2018-12-22T08:42:05.915Z,100225.89
2018-12-22T08:47:10.760Z,100234.58
2018-12-22T08:52:15.669Z,100233.64
2018-12-22T08:57:20.577Z,100243.95
2018-12-22T09:02:25.941Z,100245.52
2018-12-22T09:07:30.897Z,100245.72
2018-12-22T09:12:35.639Z,100262.41
2018-12-22T09:17:40.434Z,100277.33
2018-12-22T09:22:45.259Z,100277.98
2018-12-22T09:27:50.145Z,100298.39
2018-12-22T09:32:54.996Z,100307.48
2018-12-22T09:37:59.892Z,100317.11
2018-12-22T09:43:04.849Z,100337.28
2018-12-22T09:48:09.799Z,100342.55
2018-12-22T09:53:14.649Z,100356.30
2018-12-22T09:58:19.487Z,100358.55
2018-12-22T10:03:24.373Z,100367.34
2018-12-22T10:08:29.269Z,100373.30
2018-12-22T10:13:34.133Z,100375.80
2018-12-22T10:18:39.029Z,100391.19
2018-12-22T10:23:43.908Z,100404.62
2018-12-22T10:28:48.469Z,100413.57
2018-12-22T10:33:53.096Z,100421.41
2018-12-22T10:38:57.933Z,100416.76
2018-12-22T10:44:02.750Z,100414.52
2018-12-22T10:49:07.538Z,100424.67
2018-12-22T10:54:12.428Z,100430.50
2018-12-22T10:59:17.244Z,100419.37
2018-12-22T11:04:22.018Z,100423.34
2018-12-22T11:09:27.255Z,100419.58
2018-12-22T11:14:32.093Z,100426.16
2018-12-22T11:19:36.974Z,100417.39
2018-12-22T11:24:42.233Z,100425.36
2018-12-22T11:29:47.183Z,100429.06
2018-12-22T11:34:51.968Z,100423.31
2018-12-22T11:39:56.958Z,100427.51
2018-12-22T11:45:01.560Z,100424.86
2018-12-22T11:50:07.770Z,100424.92
2018-12-22T11:55:12.668Z,100421.31
2018-12-22T12:00:17.586Z,100418.59
2018-12-22T12:05:22.373Z,100431.30
2018-12-22T12:10:27.193Z,100423.09
2018-12-22T12:15:39.883Z,100422.30
2018-12-22T12:20:44.764Z,100426.38
2018-12-22T12:25:49.673Z,100424.61
2018-12-22T12:30:54.463Z,100422.60
2018-12-22T12:35:59.324Z,100428.17
2018-12-22T12:41:04.199Z,100440.52
2018-12-22T12:46:08.979Z,100441.58
2018-12-22T12:51:13.840Z,100433.34
2018-12-22T12:56:18.709Z,100440.99
2018-12-22T13:01:24.469Z,100441.67
2018-12-22T13:07:32.319Z,100445.23
2018-12-22T13:12:44.066Z,100444.29
2018-12-22T13:17:48.954Z,100457.30
2018-12-22T13:22:53.820Z,100455.64
2018-12-22T13:27:58.594Z,100456.94
2018-12-22T13:33:03.416Z,100447.05
2018-12-22T13:38:08.320Z,100445.60
2018-12-22T13:43:13.209Z,100456.21
2018-12-22T13:48:18.255Z,100471.06
2018-12-22T13:53:23.179Z,100476.53
2018-12-22T13:58:28.385Z,100467.58
2018-12-22T14:03:36.864Z,100474.86
2018-12-22T14:08:41.769Z,100477.16
2018-12-22T14:13:46.539Z,100483.59
2018-12-22T14:18:56.997Z,100490.45
2018-12-22T14:24:10.239Z,100486.08
2018-12-22T14:29:15.073Z,100495.20
2018-12-22T14:34:24.959Z,100491.48
2018-12-22T14:39:29.811Z,100497.49
2018-12-22T14:44:34.773Z,100500.58
2018-12-22T14:49:39.599Z,100512.58
2018-12-22T14:54:44.450Z,100523.14
2018-12-22T14:59:49.454Z,100536.02
2018-12-22T15:04:54.304Z,100531.12
2018-12-22T15:09:59.074Z,100524.59
2018-12-22T15:15:04.035Z,100529.89
2018-12-22T15:20:12.874Z,100534.67
2018-12-22T15:25:17.854Z,100537.38
2018-12-22T15:30:22.855Z,100545.69
2018-12-22T15:35:27.704Z,100546.55
2018-12-22T15:40:32.583Z,100550.55
2018-12-22T15:45:37.403Z,100545.17
2018-12-22T15:50:42.968Z,100540.28
2018-12-22T15:55:47.891Z,100545.50
2018-12-22T16:00:52.688Z,100557.48
2018-12-22T16:05:57.507Z,100564.67
2018-12-22T16:11:02.294Z,100557.47
2018-12-22T16:16:07.708Z,100563.38
2018-12-22T16:32:09.354Z,100559.74
2018-12-22T16:37:14.343Z,100565.17
2018-12-22T16:42:19.189Z,100561.69
2018-12-22T16:47:23.853Z,100563.42
2018-12-22T16:52:28.663Z,100575.08
2018-12-22T16:57:33.553Z,100575.40
2018-12-22T17:02:47.532Z,100588.22
2018-12-22T17:07:52.478Z,100582.32
2018-12-22T17:12:57.366Z,100586.89
2018-12-22T17:18:02.260Z,100592.64
2018-12-22T17:23:14.391Z,100589.49
2018-12-22T17:28:19.273Z,100590.85
2018-12-22T17:33:24.290Z,100593.40
2018-12-22T17:38:29.709Z,100583.14
2018-12-22T17:43:34.964Z,100585.75
2018-12-22T17:48:39.844Z,100590.54
2018-12-22T17:53:44.623Z,100594.06
2018-12-22T17:58:49.520Z,100594.24
2018-12-22T18:03:54.460Z,100591.36
2018-12-22T18:08:59.405Z,100584.22
2018-12-22T18:14:04.280Z,100570.19
2018-12-22T18:19:09.225Z,100564.16
2018-12-22T18:24:14.100Z,100564.03
2018-12-22T18:29:18.951Z,100572.70
2018-12-22T18:34:23.855Z,100578.44
2018-12-22T18:39:28.636Z,100571.66
2018-12-22T18:44:33.499Z,100562.38
2018-12-22T18:49:38.439Z,100574.39
2018-12-22T18:54:43.315Z,100573.53
2018-12-22T18:59:51.300Z,100579.94
2018-12-22T19:04:56.175Z,100582.73
2018-12-22T19:10:01.020Z,100574.93
2018-12-22T19:15:06.045Z,100573.31
2018-12-22T19:20:15.280Z,100572.58
2018-12-22T19:25:20.149Z,100583.03
2018-12-22T19:30:25.113Z,100572.66
2018-12-22T19:35:30.094Z,100576.09
2018-12-22T19:40:34.945Z,100556.36
2018-12-22T19:45:39.835Z,100547.02
2018-12-22T19:50:44.760Z,100554.77
2018-12-22T19:55:49.694Z,100562.27
2018-12-22T20:00:54.529Z,100548.02
2018-12-22T20:05:59.449Z,100545.56
2018-12-22T20:11:04.426Z,100542.78
2018-12-22T20:16:09.384Z,100533.39
2018-12-22T20:21:14.401Z,100532.98
2018-12-22T20:26:19.253Z,100539.70
2018-12-22T20:31:25.024Z,100536.98
2018-12-22T20:36:30.029Z,100534.65
2018-12-22T20:41:35.028Z,100521.48
2018-12-22T20:46:39.789Z,100520.56
2018-12-22T20:51:44.749Z,100509.51
2018-12-22T20:56:49.799Z,100497.90
2018-12-22T21:01:54.710Z,100486.77
2018-12-22T21:06:59.769Z,100477.42
2018-12-22T21:12:04.794Z,100466.30
2018-12-22T21:17:09.634Z,100464.27
2018-12-22T21:22:14.414Z,100457.50
2018-12-22T21:27:19.424Z,100452.00
2018-12-22T21:32:24.274Z,100446.17
2018-12-22T21:37:29.380Z,100440.78
2018-12-22T21:42:34.309Z,100432.77
2018-12-22T21:47:39.252Z,100449.73
2018-12-22T21:52:44.304Z,100429.17
2018-12-22T21:57:50.199Z,100428.57
2018-12-22T22:02:55.034Z,100430.16
2018-12-22T22:07:59.899Z,100407.05
2018-12-22T22:13:04.915Z,100385.04
2018-12-22T22:18:09.710Z,100382.00
2018-12-22T22:23:18.878Z,100368.66
2018-12-22T22:28:21.485Z,100358.78
2018-12-22T22:33:27.561Z,100355.30
2018-12-22T22:38:32.756Z,100350.62
2018-12-22T22:43:37.640Z,100339.25
2018-12-22T22:48:42.361Z,100333.72
2018-12-22T22:53:47.141Z,100329.88
2018-12-22T22:58:52.131Z,100321.51
2018-12-22T23:03:57.070Z,100319.84
2018-12-22T23:09:02.113Z,100313.32
2018-12-22T23:14:07.104Z,100317.12
2018-12-22T23:19:12.094Z,100324.86
2018-12-22T23:24:16.888Z,100319.09
2018-12-22T23:29:21.739Z,100300.03
2018-12-22T23:34:27.579Z,100292.86
2018-12-22T23:39:32.639Z,100288.37
2018-12-22T23:44:37.504Z,100288.73
2018-12-22T23:49:42.239Z,100267.33
2018-12-22T23:54:47.174Z,100276.22
2018-12-22T23:59:52.054Z,100261.84
